Time;durP1;ratioP1;P1;durP2;ratioP2;P2;SDS_P1;SDS_P2;PMS_P1;PMS_P2;Temp;Humidity;BMP_temperature;BMP_pressure;BME280_temperature;BME280_humidity;BME280_pressure;Samples;Min_cycle;Max_cycle;Signal;HPM_P1;HPM_P2
2023/12/28 00:01:51;;;;;;;6.90;5.20;;;1.30;99.90;;;;;;5005209;28;20847;-74
2023/12/28 00:04:18;;;;;;;6.00;5.23;;;1.30;99.90;;;;;;5002663;28;20457;-74
2023/12/28 00:06:47;;;;;;;7.83;5.20;;;1.20;99.90;;;;;;4996376;28;20506;-76
2023/12/28 00:09:14;;;;;;;5.30;4.80;;;1.30;99.90;;;;;;4999943;28;20554;-74
2023/12/28 00:11:40;;;;;;;8.10;5.60;;;1.30;99.90;;;;;;5006090;28;20477;-74
2023/12/28 00:14:07;;;;;;;7.03;5.30;;;1.30;99.90;;;;;;5005633;28;21099;-74
2023/12/28 00:16:36;;;;;;;8.43;6.20;;;1.30;99.90;;;;;;5005030;28;20498;-74
2023/12/28 00:19:03;;;;;;;10.63;5.73;;;1.30;99.90;;;;;;5001536;28;20832;-74
2023/12/28 00:21:30;;;;;;;4.77;3.57;;;1.20;99.90;;;;;;5004782;28;20961;-74
2023/12/28 00:24:00;;;;;;;6.83;6.13;;;1.20;99.90;;;;;;5004738;28;20463;-74
2023/12/28 00:26:27;;;;;;;4.70;2.53;;;1.10;99.90;;;;;;5004824;28;20534;-74
2023/12/28 00:28:54;;;;;;;7.17;3.50;;;1.20;99.90;;;;;;5004524;28;20510;-76
2023/12/28 00:31:21;;;;;;;2.73;2.50;;;1.10;99.90;;;;;;5003323;28;20512;-74
2023/12/28 00:33:50;;;;;;;2.80;2.60;;;1.20;99.90;;;;;;5003886;28;20474;-73
2023/12/28 00:36:17;;;;;;;4.87;3.87;;;1.10;99.90;;;;;;5003696;28;20605;-74
2023/12/28 00:38:45;;;;;;;4.90;4.37;;;1.00;99.90;;;;;;5005708;28;20508;-74
2023/12/28 00:41:13;;;;;;;6.57;4.53;;;1.00;99.90;;;;;;5002503;28;21117;-74
2023/12/28 00:43:40;;;;;;;5.37;4.87;;;1.00;99.90;;;;;;5007532;28;20470;-74
2023/12/28 00:46:07;;;;;;;8.00;5.77;;;1.00;99.90;;;;;;5005569;28;20443;-77
2023/12/28 00:48:34;;;;;;;6.10;5.57;;;1.00;99.90;;;;;;5001285;28;20599;-75
2023/12/28 00:51:01;;;;;;;7.17;5.20;;;1.00;99.90;;;;;;5005069;28;20535;-76
2023/12/28 00:53:28;;;;;;;5.33;4.83;;;1.10;99.90;;;;;;5006238;28;20888;-74
2023/12/28 00:55:55;;;;;;;5.93;5.40;;;1.10;99.90;;;;;;5002213;28;20560;-73
2023/12/28 00:58:23;;;;;;;15.20;5.37;;;1.10;99.90;;;;;;4999161;28;20936;-74
2023/12/28 01:00:53;;;;;;;9.13;5.60;;;1.10;99.90;;;;;;5003981;28;21018;-74
2023/12/28 01:03:20;;;;;;;7.73;5.47;;;1.10;99.90;;;;;;5002780;28;20471;-74
2023/12/28 01:05:50;;;;;;;4.60;4.20;;;1.00;99.90;;;;;;5047050;28;20553;-74
2023/12/28 01:08:17;;;;;;;4.37;4.03;;;1.20;99.90;;;;;;5010952;28;20491;-74
2023/12/28 01:10:44;;;;;;;7.10;5.30;;;1.30;99.90;;;;;;4995843;28;20472;-73
2023/12/28 01:13:11;;;;;;;4.00;3.60;;;1.20;99.90;;;;;;5014980;28;21219;-74
2023/12/28 01:15:39;;;;;;;6.40;4.60;;;1.20;99.90;;;;;;5003108;28;20546;-74
2023/12/28 01:18:06;;;;;;;7.87;5.50;;;1.00;99.90;;;;;;5000314;28;20543;-74
2023/12/28 01:20:35;;;;;;;7.57;5.20;;;0.90;99.90;;;;;;5012784;28;20482;-73
2023/12/28 01:23:01;;;;;;;10.03;4.77;;;0.90;99.90;;;;;;4994503;28;20458;-74
2023/12/28 01:25:28;;;;;;;8.37;6.20;;;0.80;99.90;;;;;;5020169;28;20515;-72
2023/12/28 01:27:55;;;;;;;5.93;5.23;;;0.80;99.90;;;;;;5001655;28;20847;-76
2023/12/28 01:30:22;;;;;;;6.00;5.43;;;0.80;99.90;;;;;;5002152;28;20491;-74
2023/12/28 01:32:51;;;;;;;6.57;5.63;;;0.70;99.90;;;;;;5000190;28;20568;-74
2023/12/28 01:35:18;;;;;;;6.27;4.77;;;0.80;99.90;;;;;;5001994;28;20450;-76
2023/12/28 01:37:45;;;;;;;4.50;4.10;;;0.70;99.90;;;;;;5004186;28;20550;-76
2023/12/28 01:40:12;;;;;;;5.77;3.10;;;0.70;99.90;;;;;;5002919;28;20543;-75
2023/12/28 01:42:39;;;;;;;4.13;3.57;;;0.60;99.90;;;;;;5003137;28;20478;-74
2023/12/28 01:45:07;;;;;;;3.87;3.57;;;0.60;99.90;;;;;;5004417;28;20462;-74
2023/12/28 01:47:36;;;;;;;4.80;3.37;;;0.60;99.90;;;;;;5003803;28;20566;-74
2023/12/28 01:50:06;;;;;;;4.83;3.20;;;0.50;99.90;;;;;;5000551;28;20535;-76
2023/12/28 01:52:33;;;;;;;3.50;2.90;;;0.40;99.90;;;;;;5002006;28;20928;-77
2023/12/28 01:55:01;;;;;;;3.87;2.90;;;0.30;99.90;;;;;;5007132;28;20515;-74
2023/12/28 01:57:28;;;;;;;5.00;4.17;;;0.30;99.90;;;;;;4999000;28;20490;-74
2023/12/28 01:59:55;;;;;;;2.43;2.23;;;0.40;99.90;;;;;;5002288;28;20626;-74
2023/12/28 02:02:24;;;;;;;2.30;1.40;;;0.50;99.90;;;;;;5008285;28;20534;-75
2023/12/28 02:04:51;;;;;;;1.97;1.87;;;0.60;99.90;;;;;;5043916;28;20465;-77
2023/12/28 02:07:21;;;;;;;1.93;1.73;;;0.70;99.90;;;;;;5010015;28;20543;-76
2023/12/28 02:09:48;;;;;;;2.20;1.23;;;0.70;99.90;;;;;;5010551;28;20462;-74
2023/12/28 02:12:15;;;;;;;2.50;1.97;;;0.70;99.90;;;;;;5006171;28;21049;-75
2023/12/28 02:14:42;;;;;;;1.80;1.43;;;0.60;99.90;;;;;;5003842;28;20443;-78
2023/12/28 02:17:16;;;;;;;1.13;1.03;;;0.60;99.90;;;;;;5007800;28;20580;-76
2023/12/28 02:19:48;;;;;;;2.55;1.42;;;0.60;99.90;;;;;;5009448;28;21245;-75
2023/12/28 02:22:16;;;;;;;2.03;1.83;;;0.60;99.90;;;;;;5004004;28;20673;-79
2023/12/28 02:25:15;;;;;;;3.78;3.45;;;0.60;99.90;;;;;;5013803;28;20565;-74
2023/12/28 02:27:44;;;;;;;4.60;3.33;;;0.60;99.90;;;;;;4994220;28;20260;-74
2023/12/28 02:30:12;;;;;;;5.47;4.97;;;0.70;99.90;;;;;;4999524;28;20556;-75
2023/12/28 02:32:53;;;;;;;7.73;6.90;;;0.80;99.90;;;;;;5002954;28;20490;-77
2023/12/28 02:35:24;;;;;;;6.83;6.17;;;1.10;99.90;;;;;;4999036;28;20515;-74
2023/12/28 02:37:56;;;;;;;7.13;6.30;;;1.10;99.90;;;;;;5007803;28;21281;-76
2023/12/28 02:40:25;;;;;;;9.00;6.30;;;1.10;99.90;;;;;;5005098;28;20528;-76
2023/12/28 02:42:52;;;;;;;9.43;7.10;;;1.10;99.90;;;;;;5002077;28;20577;-76
2023/12/28 02:45:20;;;;;;;7.60;6.35;;;1.00;99.90;;;;;;4996827;28;20515;-76
2023/12/28 02:47:46;;;;;;;8.93;8.03;;;0.90;99.90;;;;;;5004019;28;20243;-77
2023/12/28 02:50:14;;;;;;;9.00;7.67;;;0.80;99.90;;;;;;5002127;28;20507;-75
2023/12/28 02:52:41;;;;;;;8.17;6.97;;;0.90;99.90;;;;;;5006591;28;20872;-77
2023/12/28 02:55:08;;;;;;;12.33;7.57;;;0.70;99.90;;;;;;5008380;28;20573;-77
2023/12/28 02:57:38;;;;;;;7.80;6.83;;;0.50;99.90;;;;;;5000461;28;20606;-77
2023/12/28 03:00:08;;;;;;;6.40;5.80;;;0.30;99.90;;;;;;5001654;28;20501;-74
2023/12/28 03:02:36;;;;;;;4.40;3.83;;;0.30;99.90;;;;;;5003785;28;20469;-73
2023/12/28 03:05:04;;;;;;;7.20;5.53;;;0.10;99.90;;;;;;5022826;28;20546;-74
2023/12/28 03:07:31;;;;;;;4.80;4.17;;;0.10;99.90;;;;;;5005073;28;20462;-73
2023/12/28 03:09:58;;;;;;;4.33;3.93;;;-0.10;99.90;;;;;;5008145;28;20498;-74
2023/12/28 03:12:25;;;;;;;5.63;4.07;;;-0.10;99.90;;;;;;5010196;28;20881;-76
2023/12/28 03:14:56;;;;;;;4.07;3.50;;;-0.20;99.90;;;;;;5010330;28;20457;-78
2023/12/28 03:17:23;;;;;;;6.20;4.87;;;-0.20;99.90;;;;;;5003927;28;20494;-74
2023/12/28 03:19:50;;;;;;;3.53;2.80;;;-0.20;99.90;;;;;;5016620;28;20528;-74
2023/12/28 03:22:18;;;;;;;4.50;4.10;;;-0.30;99.90;;;;;;5004342;28;20463;-74
2023/12/28 03:24:45;;;;;;;4.70;4.27;;;-0.30;99.90;;;;;;5014668;28;20562;-73
2023/12/28 03:27:12;;;;;;;5.83;5.30;;;-0.20;99.90;;;;;;5010143;28;20535;-74
2023/12/28 03:29:39;;;;;;;7.90;5.83;;;-0.10;99.90;;;;;;5005187;28;21111;-73
2023/12/28 03:32:08;;;;;;;7.33;6.40;;;0.10;99.90;;;;;;5003635;28;20516;-74
2023/12/28 03:34:35;;;;;;;9.03;6.63;;;0.30;99.90;;;;;;5007053;28;21038;-76
2023/12/28 03:37:02;;;;;;;8.30;7.40;;;0.50;99.90;;;;;;5009755;28;20820;-76
2023/12/28 03:39:29;;;;;;;7.07;6.37;;;0.60;99.90;;;;;;5023007;28;20542;-77
2023/12/28 03:41:56;;;;;;;7.57;6.80;;;0.60;99.90;;;;;;5019901;28;20498;-79
2023/12/28 03:44:23;;;;;;;8.40;7.20;;;0.60;99.90;;;;;;5009275;28;20551;-78
2023/12/28 03:46:51;;;;;;;8.80;7.83;;;0.70;99.90;;;;;;5004168;28;20464;-73
2023/12/28 03:49:20;;;;;;;13.60;8.63;;;0.60;99.90;;;;;;5005639;28;20459;-75
2023/12/28 03:51:49;;;;;;;7.43;6.67;;;0.60;99.90;;;;;;5009984;28;21247;-74
2023/12/28 03:54:17;;;;;;;8.00;7.40;;;0.50;99.90;;;;;;5009066;28;20498;-74
2023/12/28 03:56:44;;;;;;;10.80;8.13;;;0.40;99.90;;;;;;5009397;28;20532;-76
2023/12/28 03:59:11;;;;;;;10.60;7.63;;;0.30;99.90;;;;;;5007096;28;20486;-74
2023/12/28 04:01:38;;;;;;;10.30;7.67;;;0.20;99.90;;;;;;5006420;28;20807;-74
2023/12/28 04:04:05;;;;;;;7.20;6.40;;;0.10;99.90;;;;;;5010718;28;20451;-77
2023/12/28 04:06:34;;;;;;;4.20;3.90;;;0.00;99.90;;;;;;5035901;28;20470;-74
2023/12/28 04:09:00;;;;;;;5.90;5.33;;;-0.10;99.90;;;;;;5013031;28;20473;-74
2023/12/28 04:11:27;;;;;;;6.53;6.00;;;-0.20;99.90;;;;;;5007330;28;20508;-72
2023/12/28 04:13:54;;;;;;;7.70;5.30;;;-0.30;99.90;;;;;;5003492;28;21198;-74
2023/12/28 04:16:22;;;;;;;6.80;6.13;;;-0.20;99.90;;;;;;5005242;28;21395;-74
2023/12/28 04:18:49;;;;;;;8.90;6.37;;;-0.10;99.90;;;;;;5015345;28;20518;-75
2023/12/28 04:21:16;;;;;;;6.00;4.73;;;-0.10;99.90;;;;;;5008576;28;20470;-74
2023/12/28 04:23:44;;;;;;;7.10;4.93;;;-0.20;99.90;;;;;;5005505;28;20467;-74
2023/12/28 04:26:11;;;;;;;4.30;3.90;;;-0.30;99.90;;;;;;5005430;28;20528;-75
2023/12/28 04:28:38;;;;;;;6.00;3.70;;;-0.40;99.90;;;;;;5005605;28;20561;-74
2023/12/28 04:31:05;;;;;;;4.80;2.03;;;-0.50;99.90;;;;;;5005787;28;20520;-76
2023/12/28 04:33:32;;;;;;;2.80;2.20;;;-0.60;99.90;;;;;;5003906;28;20489;-74
2023/12/28 04:36:03;;;;;;;5.87;2.40;;;-0.50;99.90;;;;;;5012085;28;20478;-74
2023/12/28 04:38:31;;;;;;;3.70;1.40;;;-0.50;99.90;;;;;;5007829;28;21000;-74
2023/12/28 04:40:59;;;;;;;3.80;2.80;;;-0.40;99.90;;;;;;5012159;28;20470;-74
2023/12/28 04:43:26;;;;;;;3.70;3.40;;;-0.10;99.90;;;;;;5010509;28;20527;-78
2023/12/28 04:45:53;;;;;;;3.03;2.73;;;0.10;99.90;;;;;;5002069;28;20579;-74
2023/12/28 04:48:23;;;;;;;6.50;4.87;;;0.20;99.90;;;;;;5004205;28;20528;-76
2023/12/28 04:50:50;;;;;;;5.70;4.60;;;0.20;99.90;;;;;;5018064;28;20482;-76
2023/12/28 04:53:17;;;;;;;5.33;4.73;;;0.20;99.90;;;;;;5011228;28;21035;-74
2023/12/28 04:55:44;;;;;;;5.77;5.27;;;0.30;99.90;;;;;;5008396;28;20575;-74
2023/12/28 04:58:13;;;;;;;5.30;4.80;;;0.30;99.90;;;;;;5006709;28;20514;-74
2023/12/28 05:00:40;;;;;;;6.33;4.57;;;0.20;99.90;;;;;;5019424;28;20443;-74
2023/12/28 05:03:07;;;;;;;6.57;4.80;;;0.20;99.90;;;;;;5001678;28;20471;-73
2023/12/28 05:05:34;;;;;;;4.27;3.97;;;0.10;99.90;;;;;;5067502;28;20498;-74
2023/12/28 05:08:01;;;;;;;7.50;4.20;;;0.00;99.90;;;;;;5003677;28;20966;-74
2023/12/28 05:10:28;;;;;;;7.37;4.50;;;-0.20;99.90;;;;;;5010654;28;20470;-75
2023/12/28 05:12:55;;;;;;;5.83;4.43;;;-0.30;99.90;;;;;;5013106;28;20503;-74
2023/12/28 05:15:23;;;;;;;6.33;3.67;;;-0.20;99.90;;;;;;5009468;28;20477;-74
2023/12/28 05:17:50;;;;;;;5.33;4.53;;;-0.20;99.90;;;;;;5007344;28;20909;-74
2023/12/28 05:20:18;;;;;;;4.50;4.20;;;-0.10;99.90;;;;;;5015235;28;20443;-76
2023/12/28 05:22:45;;;;;;;4.50;4.10;;;0.00;99.90;;;;;;5019835;28;20477;-74
2023/12/28 05:25:12;;;;;;;6.00;3.70;;;0.10;99.90;;;;;;5003234;28;21054;-74
2023/12/28 05:27:39;;;;;;;2.70;2.50;;;0.10;99.90;;;;;;5015483;28;20808;-73
2023/12/28 05:30:08;;;;;;;2.93;2.00;;;0.10;99.90;;;;;;5006944;28;20465;-74
2023/12/28 05:32:36;;;;;;;6.77;2.97;;;0.10;99.90;;;;;;5013812;28;20547;-75
2023/12/28 05:35:04;;;;;;;2.43;2.13;;;0.10;99.90;;;;;;5018261;28;20906;-74
2023/12/28 05:37:31;;;;;;;3.33;2.67;;;-0.10;99.90;;;;;;4995918;28;20546;-74
2023/12/28 05:39:58;;;;;;;2.20;2.00;;;-0.10;99.90;;;;;;5003707;28;20522;-75
2023/12/28 05:42:25;;;;;;;2.07;1.83;;;-0.10;99.90;;;;;;5001534;28;20466;-74
2023/12/28 05:44:52;;;;;;;2.20;2.00;;;-0.10;99.90;;;;;;4997015;28;20527;-74
2023/12/28 05:47:19;;;;;;;2.40;2.20;;;-0.20;99.90;;;;;;5003631;28;20808;-74
2023/12/28 05:49:47;;;;;;;3.17;2.37;;;-0.30;99.90;;;;;;5008708;28;20508;-77
2023/12/28 05:52:16;;;;;;;2.63;2.43;;;-0.40;99.90;;;;;;5003411;28;20455;-74
2023/12/28 05:54:43;;;;;;;2.87;2.07;;;-0.50;99.90;;;;;;5002056;28;20973;-74
2023/12/28 05:57:10;;;;;;;3.23;2.33;;;-0.20;99.90;;;;;;5004518;28;20554;-76
2023/12/28 05:59:39;;;;;;;3.33;2.07;;;-0.20;99.90;;;;;;5001317;28;20520;-77
2023/12/28 06:02:07;;;;;;;4.30;2.67;;;-0.30;99.90;;;;;;5002544;28;20682;-78
2023/12/28 06:04:35;;;;;;;2.50;1.60;;;-0.20;99.90;;;;;;5006651;28;20474;-77
2023/12/28 06:07:04;;;;;;;5.30;2.90;;;-0.10;99.90;;;;;;5000961;28;20570;-74
2023/12/28 06:09:31;;;;;;;2.00;1.87;;;-0.10;99.90;;;;;;4998654;28;20467;-75
2023/12/28 06:11:58;;;;;;;2.37;2.13;;;-0.10;99.90;;;;;;5012143;28;20445;-77
2023/12/28 06:14:24;;;;;;;5.63;3.50;;;-0.20;99.90;;;;;;5006198;28;20443;-76
2023/12/28 06:16:51;;;;;;;3.23;2.90;;;-0.30;99.90;;;;;;4999200;28;20964;-72
2023/12/28 06:19:18;;;;;;;1.80;1.33;;;-0.40;99.90;;;;;;5003824;28;20547;-73
2023/12/28 06:21:45;;;;;;;3.80;2.20;;;-0.40;99.90;;;;;;5005836;28;20470;-72
2023/12/28 06:24:13;;;;;;;3.50;2.57;;;-0.40;99.90;;;;;;5004701;28;20487;-72
2023/12/28 06:26:41;;;;;;;2.93;2.23;;;-0.50;99.90;;;;;;5004764;28;20454;-73
2023/12/28 06:29:08;;;;;;;2.37;2.13;;;-0.70;99.90;;;;;;5013137;28;20537;-72
2023/12/28 06:31:36;;;;;;;2.63;2.23;;;-0.80;99.90;;;;;;5001486;28;20926;-74
2023/12/28 06:34:03;;;;;;;3.57;2.20;;;-0.90;99.90;;;;;;5004604;28;20953;-75
2023/12/28 06:36:31;;;;;;;2.07;1.47;;;-0.90;99.90;;;;;;4998454;28;20526;-75
2023/12/28 06:38:58;;;;;;;2.73;1.60;;;-0.90;99.90;;;;;;5012731;28;20569;-72
2023/12/28 06:41:27;;;;;;;2.37;1.77;;;-0.90;99.90;;;;;;5001579;28;20471;-72
2023/12/28 06:43:54;;;;;;;2.30;2.10;;;-0.80;99.90;;;;;;5004042;28;20459;-72
2023/12/28 06:46:21;;;;;;;3.30;2.23;;;-0.50;99.90;;;;;;5003890;28;20488;-73
2023/12/28 06:48:49;;;;;;;2.50;2.30;;;-0.60;99.90;;;;;;5001811;28;20537;-72
2023/12/28 06:51:19;;;;;;;1.90;1.73;;;-0.60;99.90;;;;;;5003905;28;20520;-73
2023/12/28 06:53:47;;;;;;;2.50;1.80;;;-0.80;99.90;;;;;;5003221;28;20459;-72
2023/12/28 06:56:14;;;;;;;3.13;2.07;;;-0.80;99.90;;;;;;5001725;28;20519;-75
2023/12/28 06:58:42;;;;;;;2.17;1.93;;;-0.90;99.90;;;;;;5003239;28;20490;-76
2023/12/28 07:01:09;;;;;;;2.60;2.40;;;-0.70;99.90;;;;;;5004548;28;20469;-75
2023/12/28 07:03:36;;;;;;;2.63;2.20;;;-0.70;99.90;;;;;;5012651;28;20507;-75
2023/12/28 07:06:03;;;;;;;2.60;1.67;;;-0.60;99.90;;;;;;5059915;28;20442;-74
2023/12/28 07:08:30;;;;;;;1.63;1.53;;;-0.60;99.90;;;;;;4999450;28;20466;-76
2023/12/28 07:10:58;;;;;;;1.77;1.63;;;-0.60;99.90;;;;;;5006457;28;20470;-74
2023/12/28 07:13:25;;;;;;;1.87;1.77;;;-0.60;99.90;;;;;;5008468;28;20485;-76
2023/12/28 07:15:54;;;;;;;4.53;3.43;;;-0.50;99.90;;;;;;5018896;28;20505;-74
2023/12/28 07:18:21;;;;;;;2.57;2.33;;;-0.40;99.90;;;;;;5015198;28;20478;-75
2023/12/28 07:20:48;;;;;;;3.57;3.07;;;-0.20;99.90;;;;;;5021622;28;20516;-75
2023/12/28 07:23:15;;;;;;;4.40;2.23;;;-0.20;99.90;;;;;;5021790;28;20477;-74
2023/12/28 07:25:42;;;;;;;2.67;2.43;;;-0.20;99.90;;;;;;5007118;28;20479;-74
2023/12/28 07:28:09;;;;;;;2.33;2.13;;;-0.10;99.90;;;;;;5021693;28;20987;-74
2023/12/28 07:30:37;;;;;;;1.77;1.60;;;-0.10;99.90;;;;;;5045676;28;20475;-74
2023/12/28 07:33:05;;;;;;;3.43;1.43;;;0.00;99.90;;;;;;5040493;28;20467;-74
2023/12/28 07:35:32;;;;;;;1.50;1.23;;;0.00;99.90;;;;;;5018639;28;20462;-74
2023/12/28 07:37:59;;;;;;;8.87;8.17;;;0.00;99.90;;;;;;5008248;28;20467;-77
2023/12/28 07:40:26;;;;;;;4.30;3.03;;;0.00;99.90;;;;;;5014027;28;20522;-74
2023/12/28 07:42:53;;;;;;;3.73;3.40;;;0.00;99.90;;;;;;5009562;28;20515;-75
2023/12/28 07:45:23;;;;;;;11.23;10.20;;;0.10;99.90;;;;;;5010267;28;20494;-73
2023/12/28 07:47:50;;;;;;;19.77;18.20;;;0.10;99.90;;;;;;5012438;28;20478;-75
2023/12/28 07:50:20;;;;;;;6.50;6.00;;;0.30;99.90;;;;;;5017081;28;20553;-72
2023/12/28 07:52:48;;;;;;;3.57;3.23;;;0.30;99.90;;;;;;5010956;28;20489;-74
2023/12/28 07:55:15;;;;;;;3.00;2.80;;;0.20;99.90;;;;;;5011162;28;20562;-74
2023/12/28 07:57:42;;;;;;;6.67;2.90;;;0.30;99.90;;;;;;5051260;28;20450;-73
2023/12/28 08:00:10;;;;;;;94.80;48.07;;;0.30;99.90;;;;;;5057397;28;20567;-76
2023/12/28 08:02:37;;;;;;;7.63;5.17;;;0.30;99.90;;;;;;5053363;28;20497;-75
2023/12/28 08:05:04;;;;;;;3.40;3.10;;;0.50;99.90;;;;;;5030535;28;20498;-75
2023/12/28 08:07:33;;;;;;;3.67;3.37;;;0.60;99.90;;;;;;5012086;28;20494;-77
2023/12/28 08:10:00;;;;;;;6.57;3.87;;;0.60;99.90;;;;;;5025285;28;21094;-75
2023/12/28 08:12:28;;;;;;;15.30;9.30;;;0.70;99.90;;;;;;5026310;28;20466;-74
2023/12/28 08:14:55;;;;;;;25.40;14.53;;;0.70;99.90;;;;;;5037450;28;20454;-76
2023/12/28 08:17:22;;;;;;;11.33;7.37;;;0.60;99.90;;;;;;5037898;28;20466;-75
2023/12/28 08:19:49;;;;;;;6.23;5.43;;;0.70;99.90;;;;;;5023819;28;20568;-74
2023/12/28 08:22:16;;;;;;;6.73;6.03;;;0.80;99.90;;;;;;5025479;28;20465;-75
2023/12/28 08:24:45;;;;;;;9.03;8.07;;;0.80;99.90;;;;;;4997696;28;20499;-74
2023/12/28 08:27:12;;;;;;;7.43;6.73;;;0.70;99.90;;;;;;5010193;28;20553;-74
2023/12/28 08:29:41;;;;;;;6.93;5.10;;;0.80;99.90;;;;;;5016766;28;20466;-75
2023/12/28 08:32:09;;;;;;;5.30;4.80;;;0.80;99.90;;;;;;5009753;28;20470;-77
2023/12/28 08:34:35;;;;;;;10.97;9.67;;;0.90;99.90;;;;;;5019754;28;20951;-76
2023/12/28 08:37:03;;;;;;;13.37;11.67;;;0.80;99.90;;;;;;5016536;28;20458;-76
2023/12/28 08:39:29;;;;;;;12.10;10.77;;;0.90;99.90;;;;;;5044732;28;20518;-75
2023/12/28 08:41:58;;;;;;;11.63;9.37;;;0.90;99.90;;;;;;5036817;28;20486;-76
2023/12/28 08:44:25;;;;;;;7.93;6.80;;;1.00;99.90;;;;;;5005290;28;20535;-76
2023/12/28 08:46:52;;;;;;;11.33;8.00;;;1.00;99.90;;;;;;5018241;28;20470;-75
2023/12/28 08:49:19;;;;;;;12.63;10.03;;;1.00;99.90;;;;;;5003329;28;20997;-75
2023/12/28 08:51:46;;;;;;;9.97;7.60;;;0.90;99.90;;;;;;5001717;28;20546;-78
2023/12/28 08:54:13;;;;;;;12.93;9.63;;;1.00;99.90;;;;;;5003973;28;20512;-80
2023/12/28 08:56:40;;;;;;;8.77;7.87;;;1.00;99.90;;;;;;5009544;28;20467;-74
2023/12/28 08:59:08;;;;;;;8.73;7.83;;;1.10;99.90;;;;;;5017150;28;21050;-73
2023/12/28 09:01:35;;;;;;;7.83;7.10;;;1.20;99.90;;;;;;5004608;28;20474;-73
2023/12/28 09:04:02;;;;;;;8.20;5.73;;;1.40;99.90;;;;;;5018328;28;20889;-79
2023/12/28 09:06:30;;;;;;;8.70;7.87;;;1.60;99.90;;;;;;5008023;28;20466;-74
2023/12/28 09:08:58;;;;;;;10.83;8.63;;;1.90;99.90;;;;;;5000068;28;20506;-74
2023/12/28 09:11:26;;;;;;;7.10;4.97;;;2.10;99.90;;;;;;5005790;28;20534;-75
2023/12/28 09:13:53;;;;;;;6.53;4.93;;;2.80;99.90;;;;;;5020503;28;20490;-74
2023/12/28 09:16:22;;;;;;;6.90;5.40;;;2.80;99.90;;;;;;5001035;28;20523;-75
2023/12/28 09:18:49;;;;;;;5.00;4.60;;;2.70;99.90;;;;;;5004912;28;21118;-74
2023/12/28 09:21:16;;;;;;;5.63;5.13;;;2.80;99.90;;;;;;5003127;28;20487;-73
2023/12/28 09:23:42;;;;;;;5.07;4.10;;;2.80;99.90;;;;;;4994672;28;20490;-74
2023/12/28 09:26:09;;;;;;;5.70;5.07;;;2.80;99.90;;;;;;5013190;28;20485;-74
2023/12/28 09:28:36;;;;;;;6.20;4.20;;;2.80;99.90;;;;;;5000821;28;20498;-73
2023/12/28 09:31:04;;;;;;;4.43;3.97;;;2.90;99.90;;;;;;4996704;28;20481;-74
2023/12/28 09:33:32;;;;;;;5.97;5.13;;;2.90;99.90;;;;;;5001962;28;20474;-74
2023/12/28 09:35:59;;;;;;;9.10;6.10;;;3.00;99.90;;;;;;5004331;28;20512;-75
2023/12/28 09:38:27;;;;;;;9.30;5.40;;;3.10;99.90;;;;;;5012545;28;20454;-73
2023/12/28 09:40:56;;;;;;;4.63;3.90;;;3.20;99.90;;;;;;5001069;28;20567;-74
2023/12/28 09:43:25;;;;;;;10.10;4.13;;;3.50;99.90;;;;;;4999459;28;20823;-74
2023/12/28 09:45:52;;;;;;;5.47;4.20;;;3.70;99.90;;;;;;5003886;28;20525;-75
2023/12/28 09:48:20;;;;;;;5.00;3.73;;;3.80;99.90;;;;;;5004614;28;20485;-75
2023/12/28 09:50:50;;;;;;;5.33;4.07;;;4.00;99.90;;;;;;5003769;28;20547;-75
2023/12/28 09:53:17;;;;;;;13.80;6.27;;;4.10;99.90;;;;;;5002650;28;20915;-77
2023/12/28 09:55:46;;;;;;;9.80;6.47;;;4.20;99.90;;;;;;5004205;28;20454;-74
2023/12/28 09:58:18;;;;;;;10.30;8.20;;;4.30;99.90;;;;;;5003663;28;20444;-75
2023/12/28 10:00:46;;;;;;;9.30;8.30;;;4.50;99.90;;;;;;5004051;28;20487;-77
2023/12/28 10:03:14;;;;;;;11.97;9.50;;;4.50;99.90;;;;;;5003928;28;20609;-74
2023/12/28 10:05:42;;;;;;;8.60;7.40;;;4.50;99.90;;;;;;5010740;28;20549;-74
2023/12/28 10:08:13;;;;;;;10.70;8.80;;;4.40;99.90;;;;;;5000678;28;20494;-76
2023/12/28 10:10:40;;;;;;;7.03;6.20;;;4.60;99.90;;;;;;4999998;28;20467;-74
2023/12/28 10:13:08;;;;;;;6.70;6.00;;;4.60;99.90;;;;;;5004382;28;20447;-74
2023/12/28 10:15:36;;;;;;;5.07;4.57;;;4.60;99.90;;;;;;4995888;28;20569;-74
2023/12/28 10:18:03;;;;;;;8.80;7.33;;;4.70;99.90;;;;;;5004397;28;20461;-73
2023/12/28 10:20:31;;;;;;;5.47;4.40;;;4.90;99.90;;;;;;5007343;28;20575;-77
2023/12/28 10:22:59;;;;;;;5.27;4.77;;;5.00;99.90;;;;;;5003786;28;20457;-74
2023/12/28 10:25:27;;;;;;;4.63;4.23;;;5.00;99.90;;;;;;4997746;28;20529;-76
2023/12/28 10:27:55;;;;;;;4.80;4.40;;;5.20;99.90;;;;;;5003540;28;20463;-74
2023/12/28 10:30:22;;;;;;;8.93;5.97;;;5.30;99.90;;;;;;5002382;28;20529;-74
2023/12/28 10:32:49;;;;;;;3.77;3.47;;;5.40;99.90;;;;;;5014164;28;20452;-77
2023/12/28 10:35:16;;;;;;;4.10;3.63;;;5.50;99.90;;;;;;4997596;28;20816;-76
2023/12/28 10:37:44;;;;;;;4.67;3.63;;;5.60;99.90;;;;;;5003506;28;20552;-74
2023/12/28 10:40:14;;;;;;;4.37;3.97;;;5.60;99.90;;;;;;4996308;28;20514;-74
2023/12/28 10:42:51;;;;;;;5.60;4.40;;;5.50;99.90;;;;;;5003903;28;21139;-77
2023/12/28 10:45:20;;;;;;;4.93;4.63;;;5.60;99.90;;;;;;5001418;28;20475;-74
2023/12/28 10:47:58;;;;;;;6.30;5.70;;;5.50;99.90;;;;;;5007202;28;20512;-75
2023/12/28 10:50:28;;;;;;;6.67;6.07;;;5.40;99.90;;;;;;5002216;28;21011;-77
2023/12/28 10:53:02;;;;;;;6.43;5.87;;;5.30;99.90;;;;;;5013067;28;20865;-76
2023/12/28 10:55:39;;;;;;;7.40;6.80;;;5.30;99.90;;;;;;5000796;28;20465;-76
2023/12/28 10:58:12;;;;;;;8.53;7.80;;;5.40;99.90;;;;;;4990301;28;20470;-77
2023/12/28 11:00:46;;;;;;;9.07;7.30;;;5.30;99.90;;;;;;5000520;28;20494;-74
2023/12/28 11:03:16;;;;;;;7.93;7.23;;;5.10;99.90;;;;;;4998300;28;20542;-76
2023/12/28 11:05:46;;;;;;;8.00;7.27;;;5.10;99.90;;;;;;5018939;28;21157;-75
2023/12/28 11:08:14;;;;;;;10.60;9.50;;;5.20;99.90;;;;;;5004322;28;20515;-75
2023/12/28 11:10:42;;;;;;;7.50;6.90;;;5.10;99.90;;;;;;5003306;28;20496;-78
2023/12/28 11:13:12;;;;;;;8.33;7.50;;;4.80;99.90;;;;;;5002585;28;20824;-77
2023/12/28 11:15:40;;;;;;;14.43;8.17;;;4.80;99.90;;;;;;5003423;28;20780;-78
2023/12/28 11:18:07;;;;;;;7.80;7.00;;;4.60;99.90;;;;;;5002796;28;20462;-75
2023/12/28 11:20:35;;;;;;;9.40;8.50;;;4.70;99.90;;;;;;5002797;28;20496;-75
2023/12/28 11:23:02;;;;;;;10.33;9.33;;;4.90;99.90;;;;;;5003795;28;20447;-77
2023/12/28 11:25:32;;;;;;;9.10;7.90;;;5.20;99.90;;;;;;5002508;28;20469;-75
2023/12/28 11:27:59;;;;;;;10.20;9.30;;;5.40;99.90;;;;;;5013348;28;20533;-75
2023/12/28 11:30:28;;;;;;;9.90;9.00;;;5.40;99.90;;;;;;5006380;28;21024;-78
2023/12/28 11:32:58;;;;;;;9.17;7.40;;;5.50;99.90;;;;;;5003856;28;21041;-76
2023/12/28 11:35:25;;;;;;;10.33;9.23;;;5.60;99.90;;;;;;5003517;28;20979;-75
2023/12/28 11:37:55;;;;;;;9.53;8.63;;;5.70;99.90;;;;;;5010037;28;21193;-78
2023/12/28 11:40:22;;;;;;;9.77;8.80;;;5.90;99.90;;;;;;5006590;28;21040;-77
2023/12/28 11:42:51;;;;;;;8.87;8.17;;;5.90;99.90;;;;;;5006259;28;20456;-76
2023/12/28 11:45:19;;;;;;;8.67;7.87;;;6.00;99.90;;;;;;5005871;28;21078;-75
2023/12/28 11:47:47;;;;;;;9.87;8.80;;;6.10;99.90;;;;;;5003789;28;20468;-75
2023/12/28 11:50:15;;;;;;;9.43;8.53;;;6.20;99.90;;;;;;5006377;28;20458;-77
2023/12/28 11:52:42;;;;;;;9.23;8.33;;;6.30;99.90;;;;;;5006605;28;20480;-76
2023/12/28 11:55:09;;;;;;;10.40;9.50;;;6.00;99.90;;;;;;5004442;28;20476;-77
2023/12/28 11:57:38;;;;;;;9.80;8.90;;;5.60;99.90;;;;;;5003224;28;20487;-75
2023/12/28 12:00:08;;;;;;;9.30;8.30;;;5.20;99.90;;;;;;5011039;28;20542;-75
2023/12/28 12:02:35;;;;;;;8.90;7.83;;;5.10;99.90;;;;;;5003361;28;21018;-79
2023/12/28 12:05:04;;;;;;;8.93;8.13;;;5.00;99.90;;;;;;5018133;28;20526;-76
2023/12/28 12:07:31;;;;;;;10.70;9.60;;;5.00;99.90;;;;;;4994895;28;20998;-76
2023/12/28 12:09:58;;;;;;;11.17;9.33;;;4.90;99.90;;;;;;5000816;28;20477;-75
2023/12/28 12:12:26;;;;;;;10.73;9.30;;;5.20;99.90;;;;;;5002586;28;20827;-77
2023/12/28 12:14:53;;;;;;;10.00;9.00;;;5.30;99.90;;;;;;5014824;28;20556;-75
2023/12/28 12:17:20;;;;;;;10.07;9.10;;;5.50;99.90;;;;;;5043778;28;20462;-76
2023/12/28 12:19:50;;;;;;;11.00;9.53;;;5.60;99.90;;;;;;5054095;28;20455;-74
2023/12/28 12:22:19;;;;;;;10.37;8.60;;;5.70;99.90;;;;;;5019006;28;20484;-78
2023/12/28 12:24:49;;;;;;;9.10;8.10;;;5.80;99.90;;;;;;5024323;28;21011;-76
2023/12/28 12:27:16;;;;;;;10.63;9.63;;;5.60;99.90;;;;;;5016489;28;20995;-76
2023/12/28 12:29:43;;;;;;;9.83;8.13;;;5.80;99.90;;;;;;5054444;28;20572;-77
2023/12/28 12:32:11;;;;;;;10.10;9.13;;;5.90;99.90;;;;;;5008442;28;20462;-76
2023/12/28 12:34:39;;;;;;;9.60;8.10;;;6.00;99.90;;;;;;5005791;28;20502;-78
2023/12/28 12:37:07;;;;;;;10.80;9.13;;;6.00;99.90;;;;;;5042444;28;20969;-76
2023/12/28 12:39:36;;;;;;;11.00;7.77;;;6.00;99.90;;;;;;5031149;28;20875;-77
2023/12/28 12:42:03;;;;;;;9.47;8.33;;;5.60;99.90;;;;;;5047191;28;21057;-76
2023/12/28 12:44:30;;;;;;;10.10;9.10;;;5.60;99.90;;;;;;5012512;28;20546;-76
2023/12/28 12:47:00;;;;;;;10.13;7.87;;;5.70;99.90;;;;;;5013929;28;20467;-76
2023/12/28 12:49:28;;;;;;;8.63;7.50;;;5.60;99.90;;;;;;5015039;28;20471;-78
2023/12/28 12:51:55;;;;;;;9.70;7.50;;;5.70;99.90;;;;;;5006448;28;20577;-76
2023/12/28 12:54:22;;;;;;;9.33;8.53;;;5.60;99.90;;;;;;5004184;28;20463;-76
2023/12/28 12:56:51;;;;;;;9.37;8.47;;;5.70;99.90;;;;;;5021062;28;20510;-75